Time;durP1;ratioP1;P1;durP2;ratioP2;P2;SDS_P1;SDS_P2;PMS_P1;PMS_P2;Temp;Humidity;BMP_temperature;BMP_pressure;BME280_temperature;BME280_humidity;BME280_pressure;Samples;Min_cycle;Max_cycle;Signal;HPM_P1;HPM_P2
2022/09/05 00:00:03;;;;;;;;;;;;;;;;;;5052308;28;20017;-53
2022/09/05 00:02:45;;;;;;;0.00;0.00;;;;;;;;;;5051654;28;19919;-53
2022/09/05 00:05:17;;;;;;;0.00;0.00;;;;;;;;;;5050884;28;20032;-53
2022/09/05 00:08:01;;;;;;;0.00;0.00;;;;;;;;;;5051291;28;20025;-53
2022/09/05 00:10:38;;;;;;;0.00;0.00;;;;;;;;;;5051735;28;20029;-52
2022/09/05 00:13:09;;;;;;;0.00;0.00;;;;;;;;;;5051826;28;20017;-52
2022/09/05 00:15:34;;;;;;;0.00;0.00;;;;;;;;;;5051976;28;20056;-53
2022/09/05 00:18:19;;;;;;;0.00;0.00;;;;;;;;;;5052284;28;20500;-49
2022/09/05 00:20:54;;;;;;;0.00;0.00;;;;;;;;;;5051204;28;20384;-53
2022/09/05 00:23:25;;;;;;;0.00;0.00;;;;;;;;;;5051480;28;20056;-54
2022/09/05 00:26:11;;;;;;;0.00;0.00;;;;;;;;;;5051651;28;20024;-50
2022/09/05 00:28:55;;;;;;;0.00;0.00;;;;;;;;;;5049530;28;20013;-50
2022/09/05 00:31:46;;;;;;;0.00;0.00;;;;;;;;;;5051670;28;20079;-51
2022/09/05 00:34:27;;;;;;;0.00;0.00;;;;;;;;;;5050423;28;20520;-54
2022/09/05 00:36:53;;;;;;;0.45;0.45;;;;;;;;;;5051290;28;20017;-54
2022/09/05 00:39:24;;;;;;;0.00;0.00;;;;;;;;;;5051700;28;20032;-52
2022/09/05 00:41:51;;;;;;;0.00;0.00;;;;;;;;;;5051018;28;20028;-53
2022/09/05 00:44:21;;;;;;;0.00;0.00;;;;;;;;;;5053138;28;20490;-52
2022/09/05 00:46:52;;;;;;;0.08;0.08;;;;;;;;;;5051174;28;20698;-53
2022/09/05 00:49:17;;;;;;;0.00;0.00;;;;;;;;;;5051099;28;20367;-50
2022/09/05 00:51:48;;;;;;;0.80;0.80;;;;;;;;;;5051111;28;20032;-51
2022/09/05 00:54:13;;;;;;;0.00;0.00;;;;;;;;;;5051632;28;20028;-50
2022/09/05 00:56:54;;;;;;;0.00;0.00;;;;;;;;;;5050817;28;20041;-52
2022/09/05 00:59:37;;;;;;;0.00;0.00;;;;;;;;;;5049878;28;20029;-49
2022/09/05 01:02:15;;;;;;;0.00;0.00;;;;;;;;;;5050169;28;20029;-51
2022/09/05 01:04:51;;;;;;;0.00;0.00;;;;;;;;;;5050665;28;20071;-53
2022/09/05 01:07:27;;;;;;;0.00;0.00;;;;;;;;;;5051414;28;20025;-52
2022/09/05 01:10:04;;;;;;;0.47;0.22;;;;;;;;;;5049623;28;20024;-52
2022/09/05 01:12:32;;;;;;;0.00;0.00;;;;;;;;;;5051259;28;20032;-50
2022/09/05 01:15:13;;;;;;;0.00;0.00;;;;;;;;;;5050165;28;20090;-52
2022/09/05 01:17:41;;;;;;;0.00;0.00;;;;;;;;;;5050572;28;20078;-51
2022/09/05 01:20:29;;;;;;;0.00;0.00;;;;;;;;;;5050728;28;20027;-50
2022/09/05 01:22:57;;;;;;;0.00;0.00;;;;;;;;;;5049908;28;20029;-51
2022/09/05 01:25:37;;;;;;;0.00;0.00;;;;;;;;;;5051146;28;20025;-52
2022/09/05 01:28:14;;;;;;;0.00;0.00;;;;;;;;;;5049869;28;20078;-53
2022/09/05 01:30:46;;;;;;;0.00;0.00;;;;;;;;;;5050434;28;20489;-52
2022/09/05 01:33:14;;;;;;;0.00;0.00;;;;;;;;;;5050317;28;20045;-51
2022/09/05 01:36:18;;;;;;;0.00;0.00;;;;;;;;;;5049370;28;20021;-50
2022/09/05 01:38:47;;;;;;;0.00;0.00;;;;;;;;;;5027928;28;20029;-52
2022/09/05 01:41:16;;;;;;;0.00;0.00;;;;;;;;;;5027490;28;20025;-51
2022/09/05 01:44:00;;;;;;;0.00;0.00;;;;;;;;;;5028046;28;20585;-53
2022/09/05 01:46:33;;;;;;;0.00;0.00;;;;;;;;;;5028180;28;20514;-51
2022/09/05 01:49:08;;;;;;;0.00;0.00;;;;;;;;;;5028180;28;20083;-55
2022/09/05 01:52:03;;;;;;;0.00;0.00;;;;;;;;;;5027131;28;20021;-53
2022/09/05 01:54:34;;;;;;;0.00;0.00;;;;;;;;;;4992996;28;20034;-51
2022/09/05 01:57:02;;;;;;;0.65;0.45;;;;;;;;;;5027517;28;20128;-53
2022/09/05 01:59:36;;;;;;;0.00;0.00;;;;;;;;;;5027726;28;20041;-51
2022/09/05 02:02:20;;;;;;;0.00;0.00;;;;;;;;;;5025720;28;20076;-52
2022/09/05 02:04:54;;;;;;;0.00;0.00;;;;;;;;;;5026981;28;20025;-50
2022/09/05 02:07:33;;;;;;;0.00;0.00;;;;;;;;;;5027570;28;20029;-49
2022/09/05 02:10:27;;;;;;;0.00;0.00;;;;;;;;;;5043443;28;20041;-51
2022/09/05 02:13:10;;;;;;;0.00;0.00;;;;;;;;;;5049094;28;20366;-53
2022/09/05 02:15:58;;;;;;;0.00;0.00;;;;;;;;;;5049526;28;20025;-52
2022/09/05 02:18:27;;;;;;;5.03;1.93;;;;;;;;;;5048385;28;20044;-52
2022/09/05 02:20:57;;;;;;;0.00;0.00;;;;;;;;;;5049168;28;20028;-54
2022/09/05 02:23:41;;;;;;;0.00;0.00;;;;;;;;;;5048857;28;20021;-55
2022/09/05 02:26:22;;;;;;;0.00;0.00;;;;;;;;;;5047983;28;20104;-51
2022/09/05 02:28:54;;;;;;;0.00;0.00;;;;;;;;;;5048039;28;20032;-52
2022/09/05 02:31:19;;;;;;;0.00;0.00;;;;;;;;;;5048692;28;20529;-53
2022/09/05 02:34:04;;;;;;;0.00;0.00;;;;;;;;;;5049000;28;20029;-53
2022/09/05 02:36:43;;;;;;;0.00;0.00;;;;;;;;;;5048267;28;20037;-50
2022/09/05 02:39:11;;;;;;;0.00;0.00;;;;;;;;;;5049931;28;20029;-53
2022/09/05 02:41:39;;;;;;;0.00;0.00;;;;;;;;;;5048939;28;20539;-50
2022/09/05 02:44:24;;;;;;;0.00;0.00;;;;;;;;;;5049473;28;20024;-53
2022/09/05 02:47:10;;;;;;;0.00;0.00;;;;;;;;;;5044776;28;20070;-52
2022/09/05 02:50:04;;;;;;;0.00;0.00;;;;;;;;;;5048447;28;20057;-51
2022/09/05 02:52:31;;;;;;;0.00;0.00;;;;;;;;;;5039359;28;20363;-53
2022/09/05 02:54:57;;;;;;;0.00;0.00;;;;;;;;;;5048865;28;20025;-53
2022/09/05 02:57:41;;;;;;;0.00;0.00;;;;;;;;;;5048177;28;20072;-49
2022/09/05 03:00:20;;;;;;;0.00;0.00;;;;;;;;;;5048967;28;20021;-51
2022/09/05 03:02:48;;;;;;;0.00;0.00;;;;;;;;;;5048579;28;20048;-50
2022/09/05 03:05:18;;;;;;;0.00;0.00;;;;;;;;;;5048177;28;20025;-53
2022/09/05 03:08:00;;;;;;;0.00;0.00;;;;;;;;;;5048965;28;20112;-48
2022/09/05 03:10:44;;;;;;;0.00;0.00;;;;;;;;;;5049408;28;20028;-53
2022/09/05 03:13:09;;;;;;;0.00;0.00;;;;;;;;;;5048828;28;20032;-49
2022/09/05 03:15:37;;;;;;;0.10;0.10;;;;;;;;;;5048977;28;20400;-48
2022/09/05 03:18:21;;;;;;;0.00;0.00;;;;;;;;;;5049137;28;20513;-53
2022/09/05 03:20:50;;;;;;;0.00;0.00;;;;;;;;;;5048409;28;20429;-52
2022/09/05 03:23:21;;;;;;;0.00;0.00;;;;;;;;;;5048222;28;20067;-52
2022/09/05 03:26:07;;;;;;;0.00;0.00;;;;;;;;;;5047885;28;20277;-49
2022/09/05 03:28:50;;;;;;;0.00;0.00;;;;;;;;;;5037230;28;20467;-51
2022/09/05 03:31:30;;;;;;;0.00;0.00;;;;;;;;;;5048661;28;20028;-51
2022/09/05 03:33:55;;;;;;;0.00;0.00;;;;;;;;;;5048342;28;20021;-53
2022/09/05 03:36:24;;;;;;;0.00;0.00;;;;;;;;;;5048832;28;20032;-52
2022/09/05 03:39:07;;;;;;;0.00;0.00;;;;;;;;;;5048092;28;20589;-52
2022/09/05 03:41:33;;;;;;;0.00;0.00;;;;;;;;;;5048741;28;20028;-52
2022/09/05 03:44:04;;;;;;;0.00;0.00;;;;;;;;;;5048703;28;20021;-51
2022/09/05 03:46:41;;;;;;;0.00;0.00;;;;;;;;;;5048653;28;20057;-51
2022/09/05 03:49:06;;;;;;;0.00;0.00;;;;;;;;;;5048769;28;20104;-53
2022/09/05 03:51:44;;;;;;;0.00;0.00;;;;;;;;;;5048091;28;20187;-52
2022/09/05 03:54:32;;;;;;;0.00;0.00;;;;;;;;;;5048352;28;20264;-52
2022/09/05 03:57:00;;;;;;;0.00;0.00;;;;;;;;;;5046952;28;20461;-52
2022/09/05 03:59:25;;;;;;;0.00;0.00;;;;;;;;;;5048539;28;20021;-53
2022/09/05 04:02:04;;;;;;;0.00;0.00;;;;;;;;;;5047859;28;20427;-48
2022/09/05 04:04:29;;;;;;;0.00;0.00;;;;;;;;;;5050270;28;20017;-52
2022/09/05 04:06:57;;;;;;;0.00;0.00;;;;;;;;;;5051791;28;20040;-54
2022/09/05 04:09:22;;;;;;;0.00;0.00;;;;;;;;;;5051684;28;20048;-53
2022/09/05 04:11:56;;;;;;;0.00;0.00;;;;;;;;;;5051656;28;20493;-51
2022/09/05 04:14:41;;;;;;;0.00;0.00;;;;;;;;;;5052334;28;20044;-49
2022/09/05 04:17:21;;;;;;;0.00;0.00;;;;;;;;;;5050756;28;20394;-55
2022/09/05 04:19:54;;;;;;;0.00;0.00;;;;;;;;;;5051595;28;20116;-53
2022/09/05 04:22:37;;;;;;;0.00;0.00;;;;;;;;;;5051367;28;20021;-53
2022/09/05 04:25:06;;;;;;;0.00;0.00;;;;;;;;;;5050059;28;20028;-53
2022/09/05 04:27:37;;;;;;;0.00;0.00;;;;;;;;;;5051821;28;20057;-53
2022/09/05 04:30:17;;;;;;;0.00;0.00;;;;;;;;;;5051130;28;20029;-52
2022/09/05 04:33:15;;;;;;;0.00;0.00;;;;;;;;;;5051319;28;20024;-54
2022/09/05 04:35:55;;;;;;;0.00;0.00;;;;;;;;;;5048473;28;20037;-53
2022/09/05 04:38:37;;;;;;;0.00;0.00;;;;;;;;;;5051737;28;20559;-53
2022/09/05 04:41:08;;;;;;;0.00;0.00;;;;;;;;;;5050884;28;20029;-51
2022/09/05 04:43:33;;;;;;;0.00;0.00;;;;;;;;;;5051522;28;20036;-51
2022/09/05 04:46:08;;;;;;;0.00;0.00;;;;;;;;;;5051068;28;20025;-51
2022/09/05 04:48:35;;;;;;;0.00;0.00;;;;;;;;;;5050021;28;20099;-52
2022/09/05 04:51:03;;;;;;;0.00;0.00;;;;;;;;;;5050643;28;20025;-52
2022/09/05 04:53:39;;;;;;;0.00;0.00;;;;;;;;;;5048803;28;20032;-54
2022/09/05 04:56:08;;;;;;;0.00;0.00;;;;;;;;;;5049265;28;20114;-52
2022/09/05 04:58:36;;;;;;;0.00;0.00;;;;;;;;;;5050546;28;20136;-54
2022/09/05 05:01:27;;;;;;;0.00;0.00;;;;;;;;;;5050641;28;20102;-55
2022/09/05 05:03:53;;;;;;;0.00;0.00;;;;;;;;;;5047450;28;20094;-52
2022/09/05 05:06:26;;;;;;;0.00;0.00;;;;;;;;;;5051387;28;20033;-50
2022/09/05 05:08:52;;;;;;;0.00;0.00;;;;;;;;;;5050307;28;20032;-51
2022/09/05 05:11:21;;;;;;;0.00;0.00;;;;;;;;;;5051058;28;20029;-53
2022/09/05 05:14:16;;;;;;;0.00;0.00;;;;;;;;;;5050681;28;20029;-55
2022/09/05 05:16:45;;;;;;;0.10;0.10;;;;;;;;;;5043909;28;20037;-54
2022/09/05 05:19:13;;;;;;;0.00;0.00;;;;;;;;;;5050643;28;20119;-52
2022/09/05 05:21:42;;;;;;;0.00;0.00;;;;;;;;;;5048648;28;20394;-54
2022/09/05 05:24:18;;;;;;;0.00;0.00;;;;;;;;;;5048846;28;20019;-53
2022/09/05 05:26:48;;;;;;;0.00;0.00;;;;;;;;;;5049954;28;20035;-53
2022/09/05 05:29:22;;;;;;;0.00;0.00;;;;;;;;;;5050558;28;20029;-52
2022/09/05 05:31:52;;;;;;;0.00;0.00;;;;;;;;;;5049466;28;20191;-53
2022/09/05 05:34:17;;;;;;;0.00;0.00;;;;;;;;;;5050417;28;20045;-55
2022/09/05 05:37:09;;;;;;;0.00;0.00;;;;;;;;;;5049653;28;20029;-52
2022/09/05 05:39:37;;;;;;;0.00;0.00;;;;;;;;;;5049116;28;20264;-51
2022/09/05 05:42:03;;;;;;;0.00;0.00;;;;;;;;;;5049823;28;20449;-53
2022/09/05 05:44:32;;;;;;;0.00;0.00;;;;;;;;;;5050526;28;20031;-53
2022/09/05 05:47:00;;;;;;;0.00;0.00;;;;;;;;;;5049614;28;20443;-54
2022/09/05 05:49:31;;;;;;;0.00;0.00;;;;;;;;;;5049863;28;20094;-51
2022/09/05 05:52:05;;;;;;;0.00;0.00;;;;;;;;;;5047764;28;20024;-56
2022/09/05 05:54:41;;;;;;;0.00;0.00;;;;;;;;;;5049196;28;20021;-53
2022/09/05 05:57:25;;;;;;;0.00;0.00;;;;;;;;;;5048814;28;20049;-51
2022/09/05 06:00:02;;;;;;;0.00;0.00;;;;;;;;;;5048637;28;20036;-53
2022/09/05 06:02:42;;;;;;;0.00;0.00;;;;;;;;;;5047686;28;20029;-54
2022/09/05 06:05:26;;;;;;;0.00;0.00;;;;;;;;;;5048758;28;20021;-53
2022/09/05 06:08:00;;;;;;;0.00;0.00;;;;;;;;;;5050545;28;20074;-53
2022/09/05 06:10:49;;;;;;;0.00;0.00;;;;;;;;;;5049118;28;20070;-54
2022/09/05 06:13:14;;;;;;;0.00;0.00;;;;;;;;;;5039276;28;20028;-52
2022/09/05 06:15:58;;;;;;;0.00;0.00;;;;;;;;;;5051419;28;20398;-53
2022/09/05 06:18:33;;;;;;;0.00;0.00;;;;;;;;;;5048388;28;20100;-54
2022/09/05 06:21:10;;;;;;;0.00;0.00;;;;;;;;;;5047712;28;20481;-52
2022/09/05 06:23:42;;;;;;;0.35;0.35;;;;;;;;;;5049364;28;20017;-55
2022/09/05 06:26:25;;;;;;;0.00;0.00;;;;;;;;;;5048419;28;20067;-51
2022/09/05 06:28:51;;;;;;;0.00;0.00;;;;;;;;;;5048935;28;20446;-50
2022/09/05 06:31:19;;;;;;;0.00;0.00;;;;;;;;;;5049292;28;20088;-54
2022/09/05 06:33:50;;;;;;;0.00;0.00;;;;;;;;;;5048557;28;20044;-54
2022/09/05 06:36:30;;;;;;;0.00;0.00;;;;;;;;;;5048643;28;20116;-53
2022/09/05 06:39:05;;;;;;;0.13;0.13;;;;;;;;;;5048752;28;20029;-54
2022/09/05 06:41:56;;;;;;;1.75;0.90;;;;;;;;;;5049428;28;20500;-52
2022/09/05 06:44:24;;;;;;;0.28;0.28;;;;;;;;;;5046349;28;20013;-53
2022/09/05 06:46:53;;;;;;;0.00;0.00;;;;;;;;;;5049909;28;20092;-55
2022/09/05 06:49:19;;;;;;;;;;;;;;;;;;5048305;28;20032;-54
2022/09/05 06:51:47;;;;;;;0.00;0.00;;;;;;;;;;5048156;28;19909;-51
2022/09/05 06:54:18;;;;;;;0.00;0.00;;;;;;;;;;5048525;28;20021;-53
2022/09/05 06:57:02;;;;;;;0.00;0.00;;;;;;;;;;5046875;28;20619;-51
2022/09/05 06:59:50;;;;;;;0.15;0.15;;;;;;;;;;5048028;28;20020;-53
2022/09/05 07:02:18;;;;;;;0.00;0.00;;;;;;;;;;5038317;28;20041;-53
2022/09/05 07:04:52;;;;;;;0.00;0.00;;;;;;;;;;5048323;28;20263;-54
2022/09/05 07:07:25;;;;;;;0.00;0.00;;;;;;;;;;5049153;28;20021;-55
2022/09/05 07:09:53;;;;;;;0.00;0.00;;;;;;;;;;5049970;28;20028;-56
2022/09/05 07:12:31;;;;;;;0.00;0.00;;;;;;;;;;5049470;28;20454;-54
2022/09/05 07:14:59;;;;;;;0.00;0.00;;;;;;;;;;5048238;28;20040;-54
2022/09/05 07:17:33;;;;;;;0.13;0.10;;;;;;;;;;5048851;28;20516;-55
2022/09/05 07:20:00;;;;;;;0.00;0.00;;;;;;;;;;5047816;28;20527;-54
2022/09/05 07:22:33;;;;;;;0.05;0.05;;;;;;;;;;5049274;28;20553;-54
2022/09/05 07:25:05;;;;;;;0.00;0.00;;;;;;;;;;5048142;28;20028;-56
2022/09/05 07:27:33;;;;;;;0.00;0.00;;;;;;;;;;5048961;28;20032;-54
2022/09/05 07:29:59;;;;;;;0.00;0.00;;;;;;;;;;5048442;28;20055;-54
2022/09/05 07:32:26;;;;;;;0.00;0.00;;;;;;;;;;5048691;28;20048;-53
2022/09/05 07:34:51;;;;;;;0.00;0.00;;;;;;;;;;5049968;28;20378;-54
2022/09/05 07:37:16;;;;;;;0.00;0.00;;;;;;;;;;5049141;28;20029;-56
2022/09/05 07:39:50;;;;;;;0.00;0.00;;;;;;;;;;5051083;28;20067;-49
2022/09/05 07:42:19;;;;;;;0.17;0.17;;;;;;;;;;5052748;28;20287;-52
2022/09/05 07:44:56;;;;;;;0.40;0.40;;;;;;;;;;5052899;28;20096;-54
2022/09/05 07:47:30;;;;;;;0.10;0.10;;;;;;;;;;5050699;28;20021;-57
2022/09/05 07:49:59;;;;;;;0.00;0.00;;;;;;;;;;5051948;28;20424;-56
2022/09/05 07:52:26;;;;;;;0.00;0.00;;;;;;;;;;5052731;28;20032;-54
2022/09/05 07:54:52;;;;;;;0.00;0.00;;;;;;;;;;5053421;28;20021;-50
2022/09/05 07:57:22;;;;;;;0.00;0.00;;;;;;;;;;5052165;28;20053;-53
2022/09/05 07:59:49;;;;;;;0.00;0.00;;;;;;;;;;5052026;28;20025;-55
2022/09/05 08:02:14;;;;;;;0.00;0.00;;;;;;;;;;5052181;28;20831;-55
2022/09/05 08:04:40;;;;;;;0.00;0.00;;;;;;;;;;5052490;28;20051;-55
2022/09/05 08:07:11;;;;;;;0.08;0.08;;;;;;;;;;5053006;28;20131;-56
2022/09/05 08:09:38;;;;;;;0.00;0.00;;;;;;;;;;5052288;28;20071;-56
2022/09/05 08:12:08;;;;;;;0.00;0.00;;;;;;;;;;5051463;28;20036;-56
2022/09/05 08:14:42;;;;;;;0.00;0.00;;;;;;;;;;5051085;28;20040;-56
2022/09/05 08:17:29;;;;;;;0.00;0.00;;;;;;;;;;5051587;28;20462;-52
2022/09/05 08:20:05;;;;;;;1.05;0.45;;;;;;;;;;5051299;28;20086;-54
2022/09/05 08:22:36;;;;;;;0.00;0.00;;;;;;;;;;5051198;28;20056;-55
2022/09/05 08:25:13;;;;;;;0.00;0.00;;;;;;;;;;5050417;28;20036;-55
2022/09/05 08:27:53;;;;;;;0.00;0.00;;;;;;;;;;5052718;28;20053;-53
2022/09/05 08:30:19;;;;;;;0.00;0.00;;;;;;;;;;5051946;28;20458;-55
2022/09/05 08:32:47;;;;;;;0.00;0.00;;;;;;;;;;5051729;28;20103;-54
2022/09/05 08:35:24;;;;;;;0.00;0.00;;;;;;;;;;5052119;28;20075;-55
2022/09/05 08:37:50;;;;;;;0.00;0.00;;;;;;;;;;5051795;28;20032;-54
2022/09/05 08:40:18;;;;;;;0.00;0.00;;;;;;;;;;5051879;28;20101;-56
2022/09/05 08:43:10;;;;;;;0.00;0.00;;;;;;;;;;5051518;28;20029;-54
2022/09/05 08:45:45;;;;;;;0.35;0.35;;;;;;;;;;5049949;28;20590;-55
2022/09/05 08:48:15;;;;;;;0.00;0.00;;;;;;;;;;5051162;28;20462;-53
2022/09/05 08:51:00;;;;;;;0.00;0.00;;;;;;;;;;5053665;28;20028;-54
2022/09/05 08:53:43;;;;;;;0.00;0.00;;;;;;;;;;5051183;28;20029;-55
2022/09/05 08:56:09;;;;;;;0.00;0.00;;;;;;;;;;5050846;28;20482;-56
2022/09/05 08:58:40;;;;;;;0.00;0.00;;;;;;;;;;5051368;28;20116;-55
2022/09/05 09:01:14;;;;;;;0.00;0.00;;;;;;;;;;5051160;28;20039;-56
2022/09/05 09:03:58;;;;;;;0.00;0.00;;;;;;;;;;5050881;28;20536;-56
2022/09/05 09:06:42;;;;;;;0.00;0.00;;;;;;;;;;5050297;28;20083;-55
2022/09/05 09:09:33;;;;;;;0.00;0.00;;;;;;;;;;5050454;28;20020;-55
2022/09/05 09:12:04;;;;;;;0.00;0.00;;;;;;;;;;5050179;28;20040;-55
2022/09/05 09:14:32;;;;;;;0.00;0.00;;;;;;;;;;5052983;28;20077;-55
2022/09/05 09:17:16;;;;;;;0.00;0.00;;;;;;;;;;5050802;28;20108;-56
2022/09/05 09:19:48;;;;;;;0.00;0.00;;;;;;;;;;5050786;28;20075;-55
2022/09/05 09:22:40;;;;;;;0.00;0.00;;;;;;;;;;5049877;28;20021;-55
2022/09/05 09:25:20;;;;;;;0.00;0.00;;;;;;;;;;5052152;28;20032;-57
2022/09/05 09:28:02;;;;;;;0.00;0.00;;;;;;;;;;5050907;28;20062;-55
2022/09/05 09:30:28;;;;;;;0.03;0.03;;;;;;;;;;5050961;28;20057;-56
2022/09/05 09:32:56;;;;;;;0.00;0.00;;;;;;;;;;5050459;28;20043;-55
2022/09/05 09:35:22;;;;;;;0.00;0.00;;;;;;;;;;5051292;28;20016;-57
2022/09/05 09:37:50;;;;;;;0.00;0.00;;;;;;;;;;5051289;28;20275;-53
2022/09/05 09:40:28;;;;;;;0.00;0.00;;;;;;;;;;5050592;28;20485;-55
2022/09/05 09:43:02;;;;;;;0.00;0.00;;;;;;;;;;5049498;28;20429;-58
2022/09/05 09:45:30;;;;;;;0.00;0.00;;;;;;;;;;5050392;28;20016;-56
2022/09/05 09:48:15;;;;;;;0.00;0.00;;;;;;;;;;5049859;28;20021;-54
2022/09/05 09:50:46;;;;;;;0.00;0.00;;;;;;;;;;5050344;28;20087;-54
2022/09/05 09:53:28;;;;;;;0.00;0.00;;;;;;;;;;5050223;28;20016;-53
2022/09/05 09:55:53;;;;;;;0.00;0.00;;;;;;;;;;5049876;28;20036;-52
2022/09/05 09:58:21;;;;;;;0.00;0.00;;;;;;;;;;5049921;28;20049;-55
2022/09/05 10:01:05;;;;;;;0.00;0.00;;;;;;;;;;5048274;28;20699;-54
2022/09/05 10:03:44;;;;;;;1.02;0.93;;;;;;;;;;5049602;28;20032;-54
2022/09/05 10:06:25;;;;;;;0.10;0.10;;;;;;;;;;5048185;28;20540;-52
2022/09/05 10:09:08;;;;;;;0.00;0.00;;;;;;;;;;5049145;28;20025;-55
2022/09/05 10:11:39;;;;;;;0.00;0.00;;;;;;;;;;5048318;28;20478;-54
2022/09/05 10:14:08;;;;;;;0.00;0.00;;;;;;;;;;5050694;28;20013;-55
2022/09/05 10:17:04;;;;;;;0.00;0.00;;;;;;;;;;5049885;28;20024;-55
2022/09/05 10:19:44;;;;;;;0.00;0.00;;;;;;;;;;5049537;28;20028;-54
2022/09/05 10:22:09;;;;;;;0.10;0.10;;;;;;;;;;5047338;28;20033;-54
2022/09/05 10:24:34;;;;;;;0.50;0.50;;;;;;;;;;5049005;28;20370;-52
2022/09/05 10:27:09;;;;;;;0.00;0.00;;;;;;;;;;5048956;28;20752;-56
2022/09/05 10:29:43;;;;;;;0.00;0.00;;;;;;;;;;5049688;28;20255;-54
2022/09/05 10:32:25;;;;;;;0.00;0.00;;;;;;;;;;5048085;28;20049;-54
2022/09/05 10:34:53;;;;;;;0.10;0.08;;;;;;;;;;5048341;28;20036;-55
2022/09/05 10:37:19;;;;;;;0.00;0.00;;;;;;;;;;5049172;28;20029;-55
2022/09/05 10:39:47;;;;;;;0.00;0.00;;;;;;;;;;5048144;28;20044;-54
2022/09/05 10:42:14;;;;;;;0.00;0.00;;;;;;;;;;5049039;28;20025;-56
2022/09/05 10:44:52;;;;;;;0.35;0.30;;;;;;;;;;5047215;28;20258;-52
2022/09/05 10:47:24;;;;;;;0.00;0.00;;;;;;;;;;5048622;28;20020;-55
2022/09/05 10:49:55;;;;;;;0.00;0.00;;;;;;;;;;5048972;28;20028;-51
2022/09/05 10:52:20;;;;;;;0.00;0.00;;;;;;;;;;5050199;28;20043;-54
2022/09/05 10:55:04;;;;;;;0.10;0.00;;;;;;;;;;5049323;28;20029;-54
2022/09/05 10:57:49;;;;;;;0.47;0.05;;;;;;;;;;5049172;28;20053;-53
2022/09/05 11:00:53;;;;;;;0.00;0.00;;;;;;;;;;5047295;28;20025;-54
2022/09/05 11:03:28;;;;;;;0.10;0.10;;;;;;;;;;5006658;28;20063;-54
2022/09/05 11:05:58;;;;;;;0.00;0.00;;;;;;;;;;5005648;28;20041;-55
2022/09/05 11:08:23;;;;;;;1.85;0.05;;;;;;;;;;5006413;28;20033;-55
2022/09/05 11:10:58;;;;;;;2.13;2.07;;;;;;;;;;5006815;28;20050;-56
2022/09/05 11:13:44;;;;;;;0.03;0.03;;;;;;;;;;5008362;28;20285;-55
2022/09/05 11:16:09;;;;;;;0.00;0.00;;;;;;;;;;5010201;28;20343;-56
2022/09/05 11:18:37;;;;;;;0.00;0.00;;;;;;;;;;5010835;28;20112;-55
2022/09/05 11:21:07;;;;;;;0.00;0.00;;;;;;;;;;5010609;28;20292;-56
2022/09/05 11:23:38;;;;;;;0.00;0.00;;;;;;;;;;5009288;28;20056;-55
2022/09/05 11:26:16;;;;;;;0.00;0.00;;;;;;;;;;5010486;28;20108;-57
2022/09/05 11:28:50;;;;;;;0.07;0.07;;;;;;;;;;5010261;28;20502;-54
2022/09/05 11:31:19;;;;;;;0.00;0.00;;;;;;;;;;5009656;28;20034;-54
2022/09/05 11:33:59;;;;;;;0.32;0.32;;;;;;;;;;5027341;28;20373;-56
2022/09/05 11:36:28;;;;;;;0.00;0.00;;;;;;;;;;5050666;28;20116;-56
2022/09/05 11:38:56;;;;;;;0.95;0.95;;;;;;;;;;5052558;28;20028;-56
2022/09/05 11:41:22;;;;;;;0.00;0.00;;;;;;;;;;5052922;28;20433;-54
2022/09/05 11:44:19;;;;;;;0.00;0.00;;;;;;;;;;5052551;28;20056;-55
2022/09/05 11:47:03;;;;;;;0.00;0.00;;;;;;;;;;5050877;28;20352;-55
2022/09/05 11:49:41;;;;;;;0.00;0.00;;;;;;;;;;5052137;28;20021;-55
2022/09/05 11:52:06;;;;;;;0.00;0.00;;;;;;;;;;5052014;28;20029;-55
2022/09/05 11:54:50;;;;;;;0.00;0.00;;;;;;;;;;5052826;28;20029;-55
2022/09/05 11:57:30;;;;;;;0.52;0.52;;;;;;;;;;5053340;28;20291;-55
2022/09/05 12:00:01;;;;;;;0.10;0.10;;;;;;;;;;5053593;28;20053;-54
2022/09/05 12:02:32;;;;;;;0.45;0.25;;;;;;;;;;5051884;28;20363;-52
2022/09/05 12:05:23;;;;;;;0.10;0.10;;;;;;;;;;5050966;28;20044;-55
2022/09/05 12:08:07;;;;;;;0.00;0.00;;;;;;;;;;5039892;28;20041;-54
2022/09/05 12:10:45;;;;;;;0.00;0.00;;;;;;;;;;5050468;28;20017;-56
2022/09/05 12:13:30;;;;;;;0.00;0.00;;;;;;;;;;5050433;28;20340;-53
2022/09/05 12:15:57;;;;;;;0.00;0.00;;;;;;;;;;5053111;28;20037;-56
2022/09/05 12:18:32;;;;;;;0.00;0.00;;;;;;;;;;5050375;28;20025;-54
2022/09/05 12:20:57;;;;;;;0.00;0.00;;;;;;;;;;5051966;28;20043;-55
2022/09/05 12:23:28;;;;;;;0.10;0.10;;;;;;;;;;5051804;28;20025;-54
2022/09/05 12:25:57;;;;;;;0.20;0.20;;;;;;;;;;5051317;28;20400;-55
2022/09/05 12:28:27;;;;;;;0.93;0.93;;;;;;;;;;5051625;28;20025;-57
2022/09/05 12:30:55;;;;;;;0.00;0.00;;;;;;;;;;5051894;28;20025;-56
2022/09/05 12:33:27;;;;;;;0.47;0.47;;;;;;;;;;5047557;28;20086;-54
2022/09/05 12:35:56;;;;;;;0.15;0.15;;;;;;;;;;5048324;28;20107;-55
2022/09/05 12:38:27;;;;;;;0.00;0.00;;;;;;;;;;5050559;28;20029;-54
2022/09/05 12:41:04;;;;;;;0.10;0.10;;;;;;;;;;5050835;28;20024;-56
2022/09/05 12:43:30;;;;;;;0.15;0.15;;;;;;;;;;5050790;28;20057;-56
2022/09/05 12:45:55;;;;;;;0.25;0.25;;;;;;;;;;5050521;28;20056;-55
2022/09/05 12:48:39;;;;;;;0.00;0.00;;;;;;;;;;5051111;28;20043;-55
2022/09/05 12:51:15;;;;;;;0.00;0.00;;;;;;;;;;5050319;28;20264;-56
2022/09/05 12:53:49;;;;;;;0.00;0.00;;;;;;;;;;5050781;28;20032;-57
2022/09/05 12:56:28;;;;;;;0.08;0.08;;;;;;;;;;5050505;28;20437;-56
2022/09/05 12:58:53;;;;;;;0.00;0.00;;;;;;;;;;5050966;28;20068;-56
2022/09/05 13:01:19;;;;;;;0.00;0.00;;;;;;;;;;5051875;28;20513;-55
2022/09/05 13:04:00;;;;;;;0.00;0.00;;;;;;;;;;5049337;28;20027;-53
2022/09/05 13:06:30;;;;;;;0.00;0.00;;;;;;;;;;5051044;28;20274;-56
2022/09/05 13:09:15;;;;;;;0.00;0.00;;;;;;;;;;5051841;28;20035;-56
2022/09/05 13:12:02;;;;;;;0.00;0.00;;;;;;;;;;5049649;28;20082;-57
2022/09/05 13:14:51;;;;;;;0.00;0.00;;;;;;;;;;5050280;28;20024;-53
2022/09/05 13:17:17;;;;;;;0.00;0.00;;;;;;;;;;5046296;28;20111;-56
2022/09/05 13:19:50;;;;;;;0.00;0.00;;;;;;;;;;5050236;28;20021;-55
2022/09/05 13:22:18;;;;;;;0.00;0.00;;;;;;;;;;5050055;28;20031;-56
2022/09/05 13:24:46;;;;;;;0.00;0.00;;;;;;;;;;5050283;28;20104;-57
2022/09/05 13:27:32;;;;;;;0.00;0.00;;;;;;;;;;5048614;28;20021;-55
2022/09/05 13:30:18;;;;;;;0.00;0.00;;;;;;;;;;5049938;28;20485;-56
2022/09/05 13:32:45;;;;;;;0.00;0.00;;;;;;;;;;5049223;28;20104;-57
2022/09/05 13:35:21;;;;;;;0.00;0.00;;;;;;;;;;5049273;28;20017;-56
2022/09/05 13:37:57;;;;;;;0.10;0.10;;;;;;;;;;5049647;28;20025;-55
2022/09/05 13:40:45;;;;;;;0.20;0.20;;;;;;;;;;5049966;28;20104;-56
2022/09/05 13:43:28;;;;;;;0.10;0.10;;;;;;;;;;5047510;28;20033;-52
2022/09/05 13:45:56;;;;;;;0.00;0.00;;;;;;;;;;5049925;28;20033;-55
2022/09/05 13:48:51;;;;;;;0.00;0.00;;;;;;;;;;5049644;28;20024;-54
2022/09/05 13:51:31;;;;;;;0.00;0.00;;;;;;;;;;5046515;28;20078;-56
2022/09/05 13:54:05;;;;;;;0.00;0.00;;;;;;;;;;5048414;28;20036;-55
2022/09/05 13:56:31;;;;;;;0.20;0.20;;;;;;;;;;5049948;28;20425;-56
2022/09/05 13:59:07;;;;;;;0.00;0.00;;;;;;;;;;5134759;27;20371;-54
2022/09/05 14:01:33;;;;;;;0.00;0.00;;;;;;;;;;5136803;27;20037;-55
2022/09/05 14:04:04;;;;;;;0.00;0.00;;;;;;;;;;5137433;27;20018;-55
2022/09/05 14:06:30;;;;;;;0.10;0.10;;;;;;;;;;5133264;27;20027;-54
2022/09/05 14:09:21;;;;;;;0.00;0.00;;;;;;;;;;5131915;27;20030;-57
2022/09/05 14:11:55;;;;;;;0.00;0.00;;;;;;;;;;5136346;27;20030;-55
2022/09/05 14:14:38;;;;;;;0.40;0.17;;;;;;;;;;5135179;27;20019;-56
2022/09/05 14:17:05;;;;;;;0.00;0.00;;;;;;;;;;5136149;27;20460;-55
2022/09/05 14:22:30;;;;;;;0.00;0.00;;;;;;;;;;5137217;27;20109;-54
2022/09/05 14:24:56;;;;;;;3.03;0.13;;;;;;;;;;5142500;27;20037;-54
2022/09/05 14:27:21;;;;;;;0.00;0.00;;;;;;;;;;5137181;27;20027;-56
2022/09/05 14:29:48;;;;;;;0.00;0.00;;;;;;;;;;5137405;27;20011;-55
2022/09/05 14:32:19;;;;;;;0.00;0.00;;;;;;;;;;5138548;27;20034;-55
2022/09/05 14:35:02;;;;;;;0.00;0.00;;;;;;;;;;5131555;27;20030;-55
2022/09/05 14:37:30;;;;;;;0.00;0.00;;;;;;;;;;5130499;27;20801;-56
2022/09/05 14:40:07;;;;;;;0.00;0.00;;;;;;;;;;5136602;27;20050;-56
2022/09/05 14:42:32;;;;;;;0.00;0.00;;;;;;;;;;5134823;27;20575;-56
2022/09/05 14:45:04;;;;;;;0.00;0.00;;;;;;;;;;5131175;27;20031;-56
2022/09/05 14:47:35;;;;;;;0.20;0.20;;;;;;;;;;5133735;27;20023;-55
2022/09/05 14:50:00;;;;;;;0.00;0.00;;;;;;;;;;5137306;27;20091;-56
2022/09/05 14:52:27;;;;;;;0.00;0.00;;;;;;;;;;5134751;27;20035;-55
2022/09/05 14:54:54;;;;;;;0.00;0.00;;;;;;;;;;5138031;27;20030;-53
2022/09/05 14:57:21;;;;;;;0.28;0.20;;;;;;;;;;5127973;27;20044;-56
2022/09/05 14:59:49;;;;;;;0.00;0.00;;;;;;;;;;5132399;27;20044;-57
2022/09/05 15:02:25;;;;;;;0.00;0.00;;;;;;;;;;5131977;27;20460;-54
2022/09/05 15:04:51;;;;;;;0.00;0.00;;;;;;;;;;5130171;27;20023;-54
2022/09/05 15:07:30;;;;;;;2.40;0.88;;;;;;;;;;5129239;27;20026;-56
2022/09/05 15:10:14;;;;;;;0.00;0.00;;;;;;;;;;5131341;27;20087;-56
2022/09/05 15:12:45;;;;;;;0.00;0.00;;;;;;;;;;5114392;27;20093;-57
2022/09/05 15:15:17;;;;;;;0.00;0.00;;;;;;;;;;5123083;27;20023;-56
2022/09/05 15:17:47;;;;;;;0.00;0.00;;;;;;;;;;5121537;27;20484;-55
2022/09/05 15:20:25;;;;;;;0.00;0.00;;;;;;;;;;5119810;27;20074;-56
2022/09/05 15:22:51;;;;;;;0.00;0.00;;;;;;;;;;5120932;27;20027;-61
2022/09/05 15:25:17;;;;;;;0.00;0.00;;;;;;;;;;5116125;27;20031;-61
2022/09/05 15:27:44;;;;;;;0.00;0.00;;;;;;;;;;5123109;27;20036;-59